Time;durP1;ratioP1;P1;durP2;ratioP2;P2;SDS_P1;SDS_P2;PMS_P1;PMS_P2;Temp;Humidity;BMP_temperature;BMP_pressure;BME280_temperature;BME280_humidity;BME280_pressure;Samples;Min_cycle;Max_cycle;Signal;HPM_P1;HPM_P2
2023/01/06 00:01:33;;;;;;;7.70;4.40;;;11.50;99.90;;;;;;4973354;28;20437;-73
2023/01/06 00:04:04;;;;;;;5.47;4.03;;;11.50;99.90;;;;;;4974104;28;20447;-73
2023/01/06 00:06:33;;;;;;;6.53;4.17;;;11.50;99.90;;;;;;4941734;29;20445;-74
2023/01/06 00:09:03;;;;;;;5.40;4.27;;;11.60;99.90;;;;;;4938268;29;20448;-73
2023/01/06 00:11:30;;;;;;;4.90;3.67;;;11.60;99.90;;;;;;4953843;29;20425;-73
2023/01/06 00:13:59;;;;;;;4.60;3.60;;;11.60;99.90;;;;;;4955912;28;20453;-73
2023/01/06 00:16:25;;;;;;;6.13;4.40;;;11.60;99.90;;;;;;4964447;28;20491;-73
2023/01/06 00:18:58;;;;;;;8.10;4.27;;;11.60;99.90;;;;;;4956664;28;20468;-73
2023/01/06 00:21:27;;;;;;;5.17;3.67;;;11.60;99.90;;;;;;4956723;28;20438;-73
2023/01/06 00:23:54;;;;;;;4.17;3.77;;;11.60;99.90;;;;;;4976907;28;20971;-73
2023/01/06 00:26:20;;;;;;;4.50;3.83;;;11.60;99.90;;;;;;4974436;28;20398;-73
2023/01/06 00:28:47;;;;;;;3.77;3.47;;;11.60;99.90;;;;;;4972860;28;20430;-73
2023/01/06 00:31:18;;;;;;;6.13;3.77;;;11.50;99.90;;;;;;4973869;28;20446;-73
2023/01/06 00:33:46;;;;;;;7.10;3.70;;;11.60;99.90;;;;;;4972013;28;20465;-73
2023/01/06 00:36:15;;;;;;;4.60;3.57;;;11.50;99.90;;;;;;4972650;28;20415;-73
2023/01/06 00:38:44;;;;;;;4.53;2.87;;;11.50;99.90;;;;;;4960059;28;20467;-73
2023/01/06 00:43:58;;;;;;;5.43;2.90;;;11.50;99.90;;;;;;4968803;28;20615;-73
2023/01/06 00:46:30;;;;;;;6.07;3.60;;;11.50;99.90;;;;;;4969453;28;20412;-74
2023/01/06 00:49:00;;;;;;;4.20;3.00;;;11.50;99.90;;;;;;4987964;28;20473;-73
2023/01/06 00:51:29;;;;;;;4.60;2.70;;;11.50;99.90;;;;;;4972526;28;20923;-73
2023/01/06 00:53:57;;;;;;;4.50;3.00;;;11.50;99.90;;;;;;4973391;28;20898;-73
2023/01/06 00:56:23;;;;;;;6.17;3.53;;;11.50;99.90;;;;;;4955820;28;20478;-73
2023/01/06 00:58:49;;;;;;;4.80;3.50;;;11.50;99.90;;;;;;4973351;28;20730;-73
2023/01/06 01:01:16;;;;;;;4.30;3.37;;;11.50;99.90;;;;;;4971758;28;20546;-73
2023/01/06 01:03:43;;;;;;;3.03;2.73;;;11.50;99.90;;;;;;4959567;28;20231;-73
2023/01/06 01:06:13;;;;;;;4.07;2.77;;;11.50;99.90;;;;;;4972032;28;20967;-74
2023/01/06 01:08:39;;;;;;;4.90;3.10;;;11.50;99.90;;;;;;4940788;28;20421;-73
2023/01/06 01:11:07;;;;;;;3.97;2.97;;;11.50;99.90;;;;;;4956691;28;20435;-73
2023/01/06 01:13:34;;;;;;;4.57;2.80;;;11.50;99.90;;;;;;4971968;28;20468;-74
2023/01/06 01:16:10;;;;;;;5.73;2.80;;;11.50;99.90;;;;;;4964863;28;20451;-73
2023/01/06 01:18:41;;;;;;;4.37;2.47;;;11.50;99.90;;;;;;4937661;28;20503;-73
2023/01/06 01:21:10;;;;;;;2.47;2.03;;;11.50;99.90;;;;;;4936909;29;20833;-73
2023/01/06 01:23:38;;;;;;;4.80;3.03;;;11.50;99.90;;;;;;4946006;28;20989;-73
2023/01/06 01:26:06;;;;;;;3.37;2.37;;;11.50;99.90;;;;;;4971853;28;20414;-73
2023/01/06 01:28:33;;;;;;;5.70;2.57;;;11.50;99.90;;;;;;4973117;28;20453;-73
2023/01/06 01:31:00;;;;;;;3.27;2.50;;;11.50;99.90;;;;;;4991519;28;20496;-73
2023/01/06 01:33:28;;;;;;;3.20;2.13;;;11.50;99.90;;;;;;4961630;28;20529;-73
2023/01/06 01:35:54;;;;;;;2.80;2.50;;;11.50;99.90;;;;;;4967586;28;20485;-73
2023/01/06 01:38:20;;;;;;;4.83;3.30;;;11.50;99.90;;;;;;4970163;28;20430;-73
2023/01/06 01:40:48;;;;;;;3.80;3.23;;;11.50;99.90;;;;;;4971526;28;20554;-73
2023/01/06 01:43:16;;;;;;;4.20;2.97;;;11.50;99.90;;;;;;4971039;28;20534;-73
2023/01/06 01:45:51;;;;;;;11.50;2.50;;;11.50;99.90;;;;;;4975512;28;20467;-73
2023/01/06 01:48:30;;;;;;;4.00;2.43;;;11.50;99.90;;;;;;4959771;28;20546;-73
2023/01/06 01:51:04;;;;;;;2.40;2.20;;;11.50;99.90;;;;;;4974825;28;20541;-73
2023/01/06 01:53:36;;;;;;;4.73;2.43;;;11.50;99.90;;;;;;4968085;28;20985;-73
2023/01/06 01:56:07;;;;;;;2.73;2.30;;;11.50;99.90;;;;;;4974736;28;20689;-73
2023/01/06 01:58:40;;;;;;;3.30;1.90;;;11.50;99.90;;;;;;4959876;28;20441;-73
2023/01/06 02:01:08;;;;;;;2.73;2.40;;;11.50;99.90;;;;;;4948818;29;20518;-74
2023/01/06 02:03:37;;;;;;;2.60;2.17;;;11.50;99.90;;;;;;4958938;28;20458;-73
2023/01/06 02:06:14;;;;;;;4.47;2.30;;;11.50;99.90;;;;;;4975354;28;20497;-73
2023/01/06 02:09:08;;;;;;;2.63;2.30;;;11.50;99.90;;;;;;4941945;28;20415;-73
2023/01/06 02:11:35;;;;;;;2.90;2.33;;;11.40;99.90;;;;;;4956381;29;20415;-73
2023/01/06 02:14:25;;;;;;;3.63;2.47;;;11.50;99.90;;;;;;4966282;28;20458;-73
2023/01/06 02:17:15;;;;;;;3.93;1.97;;;11.50;99.90;;;;;;4975629;28;20506;-74
2023/01/06 02:20:25;;;;;;;2.57;2.37;;;11.50;99.90;;;;;;5036057;23;20501;-77
2023/01/06 02:23:22;;;;;;;4.07;2.33;;;11.40;99.90;;;;;;4955138;28;20973;-76
2023/01/06 02:25:54;;;;;;;2.73;2.50;;;11.50;99.90;;;;;;4955428;29;20430;-76
2023/01/06 02:28:50;;;;;;;4.37;2.63;;;11.50;99.90;;;;;;4955393;29;20518;-75
2023/01/06 02:31:47;;;;;;;2.90;1.83;;;11.50;99.90;;;;;;4953948;28;20427;-76
2023/01/06 02:34:32;;;;;;;3.50;2.20;;;11.50;99.90;;;;;;4954792;29;20450;-77
2023/01/06 02:37:27;;;;;;;4.33;1.93;;;11.50;99.90;;;;;;4971068;28;20415;-77
2023/01/06 02:40:12;;;;;;;2.80;2.33;;;11.50;99.90;;;;;;4915258;29;20474;-76
2023/01/06 02:42:45;;;;;;;2.07;1.87;;;11.50;99.90;;;;;;4955460;29;20412;-77
2023/01/06 02:45:33;;;;;;;4.23;2.30;;;11.40;99.90;;;;;;4943552;29;20945;-77
2023/01/06 02:48:17;;;;;;;3.90;2.30;;;11.50;99.90;;;;;;4935989;29;20529;-77
2023/01/06 02:51:10;;;;;;;2.90;2.20;;;11.50;99.90;;;;;;4952655;29;20698;-77
2023/01/06 02:53:51;;;;;;;3.33;1.93;;;11.40;99.90;;;;;;4948675;28;20519;-77
2023/01/06 02:56:31;;;;;;;5.63;2.23;;;11.50;99.90;;;;;;4938757;29;20457;-77
2023/01/06 02:59:05;;;;;;;5.00;2.50;;;11.50;99.90;;;;;;4954657;28;20438;-76
2023/01/06 03:01:43;;;;;;;2.90;1.83;;;11.50;99.90;;;;;;4935154;29;20484;-76
2023/01/06 03:04:29;;;;;;;4.03;2.77;;;11.40;99.90;;;;;;4931655;29;20502;-76
2023/01/06 03:07:01;;;;;;;3.30;2.10;;;11.40;99.90;;;;;;4938136;29;20474;-76
2023/01/06 03:09:32;;;;;;;2.80;2.07;;;11.40;99.90;;;;;;4970562;28;20474;-76
2023/01/06 03:12:05;;;;;;;2.97;2.40;;;11.40;99.90;;;;;;4954333;29;20430;-76
2023/01/06 03:14:36;;;;;;;3.30;2.50;;;11.40;99.90;;;;;;4937707;29;20855;-76
2023/01/06 03:17:07;;;;;;;3.30;2.50;;;11.40;99.90;;;;;;4969994;28;20407;-76
2023/01/06 03:19:34;;;;;;;3.37;2.10;;;11.40;99.90;;;;;;4937364;29;20494;-76
2023/01/06 03:22:05;;;;;;;2.47;2.00;;;11.50;99.90;;;;;;4954715;29;20402;-76
2023/01/06 03:24:36;;;;;;;3.87;2.03;;;11.40;99.90;;;;;;4969639;28;20842;-76
2023/01/06 03:27:08;;;;;;;4.50;2.20;;;11.40;99.90;;;;;;4969249;28;20455;-76
2023/01/06 03:29:36;;;;;;;3.90;1.80;;;11.50;99.90;;;;;;4922230;29;20971;-76
2023/01/06 03:32:18;;;;;;;6.33;2.33;;;11.40;99.90;;;;;;4938639;29;20415;-76
2023/01/06 03:34:54;;;;;;;5.53;2.20;;;11.50;99.90;;;;;;4955128;29;20482;-76
2023/01/06 03:37:37;;;;;;;3.63;2.13;;;11.50;99.90;;;;;;4969855;28;21195;-76
2023/01/06 03:40:14;;;;;;;5.93;2.30;;;11.50;99.90;;;;;;4944531;29;20995;-76
2023/01/06 03:43:11;;;;;;;2.20;1.87;;;11.40;99.90;;;;;;4938192;29;20426;-76
2023/01/06 03:46:18;;;;;;;3.80;1.80;;;11.40;99.90;;;;;;4953957;29;20424;-76
2023/01/06 03:49:02;;;;;;;2.40;1.80;;;11.40;99.90;;;;;;4969858;28;20885;-76
2023/01/06 03:51:59;;;;;;;4.73;2.13;;;11.40;99.90;;;;;;4953856;29;20419;-76
2023/01/06 03:55:13;;;;;;;2.50;2.10;;;11.40;99.90;;;;;;4953509;29;20447;-76
2023/01/06 03:57:53;;;;;;;3.43;2.23;;;11.40;99.90;;;;;;4945075;29;20454;-76
2023/01/06 04:00:30;;;;;;;3.33;1.80;;;11.40;99.90;;;;;;4972205;28;20522;-76
2023/01/06 04:03:10;;;;;;;3.70;2.00;;;11.40;99.90;;;;;;4969287;28;20432;-76
2023/01/06 04:05:37;;;;;;;3.13;1.90;;;11.40;99.90;;;;;;4953059;28;20447;-76
2023/01/06 04:08:04;;;;;;;4.20;2.10;;;11.40;99.90;;;;;;4937127;29;20947;-76
2023/01/06 04:10:38;;;;;;;2.20;1.93;;;11.40;99.90;;;;;;4952464;28;20490;-76
2023/01/06 04:13:05;;;;;;;4.20;2.27;;;11.40;99.90;;;;;;4953198;29;20514;-76
2023/01/06 04:15:33;;;;;;;5.13;2.10;;;11.40;99.90;;;;;;4937228;29;20443;-76
2023/01/06 04:18:06;;;;;;;2.03;1.83;;;11.40;99.90;;;;;;4969652;28;20415;-76
2023/01/06 04:20:36;;;;;;;2.00;1.60;;;11.40;99.90;;;;;;4969195;28;20494;-76
2023/01/06 04:23:15;;;;;;;5.97;2.80;;;11.40;99.90;;;;;;4953030;29;20459;-76
2023/01/06 04:25:46;;;;;;;4.73;1.80;;;11.40;99.90;;;;;;4968473;28;20518;-76
2023/01/06 04:28:23;;;;;;;3.03;2.07;;;11.40;99.90;;;;;;4965531;28;20876;-76
2023/01/06 04:31:00;;;;;;;3.00;1.60;;;11.40;99.90;;;;;;4969046;28;20418;-76
2023/01/06 04:33:27;;;;;;;1.90;1.53;;;11.40;99.90;;;;;;4953008;29;20447;-76
2023/01/06 04:35:58;;;;;;;2.60;1.57;;;11.40;99.90;;;;;;4953055;29;20427;-76
2023/01/06 04:38:24;;;;;;;3.33;1.60;;;11.40;99.90;;;;;;4968150;28;20497;-76
2023/01/06 04:40:55;;;;;;;3.63;1.87;;;11.40;99.90;;;;;;4952609;29;20553;-76
2023/01/06 04:43:25;;;;;;;4.33;1.90;;;11.40;99.90;;;;;;4937413;29;20448;-76
2023/01/06 04:45:52;;;;;;;6.00;1.97;;;11.40;99.90;;;;;;4968915;28;20471;-76
2023/01/06 04:48:17;;;;;;;4.47;1.70;;;11.40;99.90;;;;;;4949358;28;20954;-76
2023/01/06 04:50:51;;;;;;;2.13;1.47;;;11.40;99.90;;;;;;4935002;29;20434;-76
2023/01/06 04:53:17;;;;;;;3.20;1.87;;;11.40;99.90;;;;;;4952857;29;20457;-76
2023/01/06 04:55:46;;;;;;;4.77;1.90;;;11.40;99.90;;;;;;4936821;29;20416;-76
2023/01/06 04:58:15;;;;;;;2.70;1.70;;;11.40;99.90;;;;;;4953071;29;20818;-76
2023/01/06 05:00:43;;;;;;;2.80;1.70;;;11.40;99.90;;;;;;4952400;29;20488;-76
2023/01/06 05:03:11;;;;;;;4.13;2.60;;;11.40;99.90;;;;;;4953771;28;20548;-76
2023/01/06 05:05:40;;;;;;;3.87;2.00;;;11.40;99.90;;;;;;4936101;29;21012;-76
2023/01/06 05:08:08;;;;;;;5.60;1.80;;;11.50;99.90;;;;;;4969086;28;20463;-76
2023/01/06 05:10:36;;;;;;;3.60;2.53;;;11.50;99.90;;;;;;4952644;29;20870;-74
2023/01/06 05:13:02;;;;;;;5.10;1.77;;;11.40;99.90;;;;;;4952869;28;20426;-76
2023/01/06 05:15:29;;;;;;;4.53;1.47;;;11.40;99.90;;;;;;4953188;28;20435;-76
2023/01/06 05:17:56;;;;;;;2.37;1.50;;;11.40;99.90;;;;;;4957208;28;20442;-76
2023/01/06 05:20:30;;;;;;;1.90;1.60;;;11.40;99.90;;;;;;4956076;28;20977;-76
2023/01/06 05:22:58;;;;;;;1.97;1.60;;;11.50;99.90;;;;;;4956402;29;20420;-76
2023/01/06 05:25:24;;;;;;;3.70;1.63;;;11.50;99.90;;;;;;4956705;29;20395;-76
2023/01/06 05:27:50;;;;;;;6.30;1.83;;;11.50;99.90;;;;;;4936578;29;20185;-76
2023/01/06 05:30:16;;;;;;;2.20;1.50;;;11.50;99.90;;;;;;4968494;28;20434;-76
2023/01/06 05:32:47;;;;;;;3.10;2.00;;;11.50;99.90;;;;;;4955940;29;20474;-76
2023/01/06 05:35:15;;;;;;;2.30;1.60;;;11.40;99.90;;;;;;4971972;28;20475;-76
2023/01/06 05:37:46;;;;;;;2.47;1.80;;;11.50;99.90;;;;;;4971821;28;20452;-76
2023/01/06 05:40:12;;;;;;;2.10;1.70;;;11.50;99.90;;;;;;4956150;29;20957;-76
2023/01/06 05:42:42;;;;;;;2.70;1.93;;;11.40;99.90;;;;;;4956342;29;20431;-76
2023/01/06 05:45:11;;;;;;;1.97;1.27;;;11.40;99.90;;;;;;4956378;28;20780;-76
2023/01/06 05:47:44;;;;;;;1.80;1.47;;;11.50;99.90;;;;;;4954926;29;20431;-75
2023/01/06 05:50:12;;;;;;;1.47;1.33;;;11.50;99.90;;;;;;4954581;28;20789;-76
2023/01/06 05:52:40;;;;;;;3.17;1.70;;;11.40;99.90;;;;;;4940201;29;20435;-76
2023/01/06 05:55:09;;;;;;;4.10;1.40;;;11.40;99.90;;;;;;4938979;29;20550;-75
2023/01/06 05:57:36;;;;;;;3.10;1.60;;;11.40;99.90;;;;;;4971912;28;20423;-76
2023/01/06 06:00:11;;;;;;;2.30;1.30;;;11.40;99.90;;;;;;4954104;28;20554;-76
2023/01/06 06:02:39;;;;;;;2.37;1.60;;;11.40;99.90;;;;;;4955545;29;20429;-76
2023/01/06 06:05:08;;;;;;;3.20;2.00;;;11.40;99.90;;;;;;4955467;28;21125;-72
2023/01/06 06:07:34;;;;;;;2.90;1.87;;;11.40;99.90;;;;;;4956208;29;20423;-72
2023/01/06 06:10:00;;;;;;;2.90;1.80;;;11.40;99.90;;;;;;4971948;28;20966;-73
2023/01/06 06:12:27;;;;;;;2.67;1.60;;;11.40;99.90;;;;;;4971828;28;20813;-73
2023/01/06 06:14:55;;;;;;;2.33;1.40;;;11.40;99.90;;;;;;4956874;28;20452;-73
2023/01/06 06:17:21;;;;;;;3.03;1.67;;;11.40;99.90;;;;;;4957222;28;20422;-73
2023/01/06 06:19:50;;;;;;;2.07;1.50;;;11.40;99.90;;;;;;4955326;28;20909;-73
2023/01/06 06:22:25;;;;;;;3.13;1.60;;;11.40;99.90;;;;;;4956225;29;20500;-73
2023/01/06 06:24:53;;;;;;;3.30;1.50;;;11.40;99.90;;;;;;4956748;28;21130;-73
2023/01/06 06:27:23;;;;;;;2.80;1.40;;;11.40;99.90;;;;;;4945793;29;20459;-72
2023/01/06 06:29:50;;;;;;;2.57;1.63;;;11.40;99.90;;;;;;4948635;28;20535;-72
2023/01/06 06:32:18;;;;;;;2.07;1.40;;;11.40;99.90;;;;;;4939691;29;20796;-71
2023/01/06 06:34:44;;;;;;;3.10;1.57;;;11.40;99.90;;;;;;4940378;29;20483;-71
2023/01/06 06:37:12;;;;;;;1.50;1.40;;;11.40;99.90;;;;;;4978296;28;20536;-71
2023/01/06 06:39:38;;;;;;;1.50;1.27;;;11.40;99.90;;;;;;4956024;29;20478;-71
2023/01/06 06:42:04;;;;;;;1.77;1.47;;;11.40;99.90;;;;;;4939613;29;20480;-72
2023/01/06 06:44:34;;;;;;;2.30;1.30;;;11.40;99.90;;;;;;4971722;28;20451;-71
2023/01/06 06:47:00;;;;;;;2.70;2.03;;;11.40;99.90;;;;;;4972371;28;21015;-71
2023/01/06 06:49:26;;;;;;;2.20;1.63;;;11.40;99.90;;;;;;4988881;28;20489;-71
2023/01/06 06:51:56;;;;;;;2.80;1.53;;;11.40;99.90;;;;;;4957198;29;20482;-71
2023/01/06 06:54:24;;;;;;;2.30;1.50;;;11.40;99.90;;;;;;4955940;29;20443;-71
2023/01/06 06:56:51;;;;;;;1.30;1.20;;;11.40;99.90;;;;;;4957187;28;20413;-71
2023/01/06 06:59:21;;;;;;;1.80;1.40;;;11.40;99.90;;;;;;4940066;29;20426;-71
2023/01/06 07:01:48;;;;;;;1.40;1.30;;;11.40;99.90;;;;;;4924273;29;20423;-71
2023/01/06 07:04:16;;;;;;;1.30;1.20;;;11.40;99.90;;;;;;4955812;29;20443;-71
2023/01/06 07:06:44;;;;;;;1.40;1.20;;;11.40;99.90;;;;;;4940103;28;20796;-71
2023/01/06 07:09:12;;;;;;;7.33;1.50;;;11.40;99.90;;;;;;4955702;29;20408;-71
2023/01/06 07:11:38;;;;;;;2.80;1.67;;;11.40;99.90;;;;;;4955940;29;21017;-71
2023/01/06 07:14:09;;;;;;;2.63;1.50;;;11.40;99.90;;;;;;4956737;28;20466;-72
2023/01/06 07:16:35;;;;;;;1.17;1.07;;;11.40;99.90;;;;;;4956541;28;20442;-71
2023/01/06 07:19:01;;;;;;;1.67;1.57;;;11.40;99.90;;;;;;4956592;28;20441;-71
2023/01/06 07:21:30;;;;;;;3.13;1.60;;;11.40;99.90;;;;;;4934434;29;20949;-71
2023/01/06 07:23:58;;;;;;;2.70;1.60;;;11.40;99.90;;;;;;4971667;28;20436;-71
2023/01/06 07:26:23;;;;;;;1.43;1.20;;;11.40;99.90;;;;;;4955581;29;20395;-71
2023/01/06 07:28:52;;;;;;;4.13;1.27;;;11.40;99.90;;;;;;4971485;28;20778;-71
2023/01/06 07:31:20;;;;;;;2.23;1.20;;;11.40;99.90;;;;;;4939281;29;20420;-71
2023/01/06 07:33:46;;;;;;;2.30;1.43;;;11.40;99.90;;;;;;4939390;29;20533;-71
2023/01/06 07:36:14;;;;;;;2.17;1.20;;;11.40;99.90;;;;;;4956266;29;20836;-71
2023/01/06 07:38:40;;;;;;;1.80;1.33;;;11.40;99.90;;;;;;4939226;29;20459;-71
2023/01/06 07:41:06;;;;;;;2.20;1.30;;;11.40;99.90;;;;;;4972897;28;20466;-71
2023/01/06 07:43:35;;;;;;;1.70;1.23;;;11.40;99.90;;;;;;4940699;29;20827;-71
2023/01/06 07:46:03;;;;;;;1.50;1.10;;;11.40;99.90;;;;;;4955246;29;20416;-71
2023/01/06 07:48:32;;;;;;;1.63;1.27;;;11.40;99.90;;;;;;4956092;29;20870;-71
2023/01/06 07:50:58;;;;;;;2.30;1.47;;;11.40;99.90;;;;;;4955916;29;20478;-71
2023/01/06 07:53:24;;;;;;;1.80;1.33;;;11.40;99.90;;;;;;4954890;28;20892;-71
2023/01/06 07:55:52;;;;;;;1.67;1.17;;;11.40;99.90;;;;;;4955795;29;20510;-71
2023/01/06 07:58:18;;;;;;;2.50;1.40;;;11.40;99.90;;;;;;4955011;29;20432;-71
2023/01/06 08:00:44;;;;;;;3.57;1.43;;;11.40;99.90;;;;;;4932357;29;20551;-71
2023/01/06 08:03:10;;;;;;;2.40;1.40;;;11.40;99.90;;;;;;4950809;28;20439;-71
2023/01/06 08:05:40;;;;;;;2.20;1.53;;;11.40;99.90;;;;;;4938797;29;20413;-71
2023/01/06 08:08:10;;;;;;;1.90;1.50;;;11.40;99.90;;;;;;4955746;29;20407;-71
2023/01/06 08:10:40;;;;;;;2.57;1.60;;;11.40;99.90;;;;;;4955155;29;20889;-71
2023/01/06 08:13:09;;;;;;;1.93;1.70;;;11.40;99.90;;;;;;4946045;28;20547;-71
2023/01/06 08:15:58;;;;;;;2.30;1.47;;;11.40;99.90;;;;;;4953680;29;20504;-71
2023/01/06 08:18:24;;;;;;;2.43;2.23;;;11.40;99.90;;;;;;4950368;29;20441;-71
2023/01/06 08:20:59;;;;;;;2.13;1.40;;;11.40;99.90;;;;;;4950205;29;20844;-71
2023/01/06 08:23:28;;;;;;;1.57;1.47;;;11.40;99.90;;;;;;4918332;29;20787;-71
2023/01/06 08:26:02;;;;;;;5.53;2.00;;;11.40;99.90;;;;;;4936087;29;20964;-72
2023/01/06 08:28:31;;;;;;;3.40;2.00;;;11.40;99.90;;;;;;4953462;29;20467;-71
2023/01/06 08:30:57;;;;;;;2.27;1.63;;;11.40;99.90;;;;;;4921697;29;20490;-71
2023/01/06 08:33:26;;;;;;;2.63;1.70;;;11.40;99.90;;;;;;4953305;28;20447;-72
2023/01/06 08:36:01;;;;;;;1.90;1.50;;;11.40;99.90;;;;;;4941829;29;20528;-72
2023/01/06 08:38:34;;;;;;;2.90;1.90;;;11.40;99.90;;;;;;4934194;29;20456;-71
2023/01/06 08:41:01;;;;;;;3.03;1.50;;;11.40;99.90;;;;;;4933662;29;20567;-72
2023/01/06 08:43:28;;;;;;;2.97;1.70;;;11.40;99.90;;;;;;4933145;29;20461;-72
2023/01/06 08:46:04;;;;;;;2.50;1.80;;;11.40;99.90;;;;;;4935885;28;20471;-72
2023/01/06 08:48:31;;;;;;;3.47;1.90;;;11.40;99.90;;;;;;4945645;29;20435;-71
2023/01/06 08:51:09;;;;;;;2.23;1.40;;;11.40;99.90;;;;;;4953805;29;20461;-71
2023/01/06 08:53:35;;;;;;;2.27;1.50;;;11.40;99.90;;;;;;4983338;28;21070;-72
2023/01/06 08:56:04;;;;;;;1.87;1.67;;;11.40;99.90;;;;;;4955582;28;20486;-71
2023/01/06 08:58:30;;;;;;;2.23;1.47;;;11.40;99.90;;;;;;4971379;28;20484;-72
2023/01/06 09:00:56;;;;;;;2.90;1.63;;;11.40;99.90;;;;;;4972817;28;20869;-72
2023/01/06 09:03:24;;;;;;;3.00;2.13;;;11.40;99.90;;;;;;4956491;28;20460;-72
2023/01/06 09:05:54;;;;;;;8.80;2.57;;;11.40;99.90;;;;;;4952945;29;20409;-73
2023/01/06 09:08:20;;;;;;;2.23;1.70;;;11.40;99.90;;;;;;4952286;28;20464;-73
2023/01/06 09:10:46;;;;;;;1.53;1.37;;;11.40;99.90;;;;;;4952977;29;20513;-73
2023/01/06 09:13:15;;;;;;;2.73;1.60;;;11.50;99.90;;;;;;4943699;28;20618;-73
2023/01/06 09:15:47;;;;;;;2.20;1.53;;;11.40;99.90;;;;;;4980209;28;20939;-72
2023/01/06 09:18:16;;;;;;;2.00;1.37;;;11.40;99.90;;;;;;4968144;28;20941;-72
2023/01/06 09:20:48;;;;;;;1.93;1.60;;;11.40;99.90;;;;;;4953060;29;20481;-73
2023/01/06 09:23:16;;;;;;;1.77;1.40;;;11.40;99.90;;;;;;4952755;28;20439;-73
2023/01/06 09:25:47;;;;;;;1.93;1.57;;;11.40;99.90;;;;;;4979425;28;20541;-73
2023/01/06 09:28:18;;;;;;;2.90;1.90;;;11.40;99.90;;;;;;4958775;28;20451;-73
2023/01/06 09:30:48;;;;;;;1.80;1.37;;;11.40;99.90;;;;;;4935945;29;20520;-73
2023/01/06 09:33:17;;;;;;;3.00;1.97;;;11.40;99.90;;;;;;4950551;28;20455;-73
2023/01/06 09:36:05;;;;;;;3.57;1.53;;;11.40;99.90;;;;;;4952305;29;20452;-72
2023/01/06 09:38:32;;;;;;;1.63;1.40;;;11.40;99.90;;;;;;4952804;28;20964;-72
2023/01/06 09:41:11;;;;;;;1.50;1.20;;;11.40;99.90;;;;;;4951769;29;20464;-73
2023/01/06 09:43:59;;;;;;;2.30;1.60;;;11.40;99.90;;;;;;4968455;28;20456;-73
2023/01/06 09:46:30;;;;;;;2.90;1.30;;;11.40;99.90;;;;;;4965410;28;20447;-73
2023/01/06 09:49:15;;;;;;;3.17;1.50;;;11.40;99.90;;;;;;4944681;29;20410;-73
2023/01/06 09:51:43;;;;;;;1.40;1.30;;;11.40;99.90;;;;;;4954765;28;20460;-73
2023/01/06 09:54:18;;;;;;;2.50;1.40;;;11.40;99.90;;;;;;4949349;29;20447;-73
2023/01/06 09:56:50;;;;;;;1.60;1.20;;;11.40;99.90;;;;;;4935127;29;20411;-73
2023/01/06 09:59:33;;;;;;;4.03;2.00;;;11.40;99.90;;;;;;4948160;29;20446;-73
2023/01/06 10:02:00;;;;;;;2.23;1.20;;;11.40;99.90;;;;;;4960332;28;20438;-73
2023/01/06 10:04:30;;;;;;;1.97;1.77;;;11.40;99.90;;;;;;4955411;28;20455;-73
2023/01/06 10:07:22;;;;;;;1.37;1.27;;;11.40;99.90;;;;;;4959189;28;20415;-73
2023/01/06 10:10:09;;;;;;;2.40;1.70;;;11.40;99.90;;;;;;4953700;28;20833;-73
2023/01/06 10:12:50;;;;;;;1.77;1.37;;;11.40;99.90;;;;;;4975341;28;20461;-73
2023/01/06 10:15:31;;;;;;;1.47;1.30;;;11.40;99.90;;;;;;4972755;28;20431;-74
2023/01/06 10:18:23;;;;;;;2.03;1.60;;;11.40;99.90;;;;;;4962541;28;20840;-74
2023/01/06 10:21:18;;;;;;;1.47;1.37;;;11.40;99.90;;;;;;4944471;29;20558;-74
2023/01/06 10:24:06;;;;;;;1.30;1.20;;;11.40;99.90;;;;;;4943314;28;20449;-74
2023/01/06 10:26:49;;;;;;;1.40;1.20;;;11.40;99.90;;;;;;4957100;29;20810;-74
2023/01/06 10:29:19;;;;;;;1.10;1.00;;;11.40;99.90;;;;;;4962302;28;20430;-74
2023/01/06 10:31:52;;;;;;;1.30;1.20;;;11.40;99.90;;;;;;4956138;29;20858;-74
2023/01/06 10:34:23;;;;;;;1.40;1.30;;;11.40;99.90;;;;;;4940630;29;20491;-74
2023/01/06 10:37:11;;;;;;;1.60;1.40;;;11.40;99.90;;;;;;4939740;29;20436;-74
2023/01/06 10:39:41;;;;;;;5.37;1.50;;;11.40;99.90;;;;;;4939956;29;20463;-74
2023/01/06 10:45:15;;;;;;;1.47;1.23;;;11.50;99.90;;;;;;4935900;29;20450;-73
2023/01/06 10:47:47;;;;;;;1.37;1.27;;;11.50;99.90;;;;;;4945239;28;20474;-74
2023/01/06 10:50:17;;;;;;;2.50;1.40;;;11.50;99.90;;;;;;4981372;28;20420;-74
2023/01/06 10:52:48;;;;;;;1.60;1.40;;;11.50;99.90;;;;;;4954361;28;20455;-74
2023/01/06 10:55:56;;;;;;;1.60;1.50;;;11.50;99.90;;;;;;4955488;29;20440;-74
2023/01/06 10:58:40;;;;;;;1.63;1.03;;;11.50;99.90;;;;;;4949036;28;20819;-74
2023/01/06 11:01:15;;;;;;;1.70;1.37;;;11.50;99.90;;;;;;4965089;28;20458;-74
2023/01/06 11:04:02;;;;;;;2.10;1.47;;;11.50;99.90;;;;;;4956314;28;20460;-74
2023/01/06 11:06:33;;;;;;;2.67;1.40;;;11.50;99.90;;;;;;4942644;29;20504;-74
2023/01/06 11:09:23;;;;;;;1.33;1.20;;;11.50;99.90;;;;;;4941529;29;20506;-75
2023/01/06 11:11:53;;;;;;;1.40;1.10;;;11.50;99.90;;;;;;4956427;29;20443;-75
2023/01/06 11:14:28;;;;;;;2.03;1.33;;;11.50;99.90;;;;;;4955253;28;20443;-75
2023/01/06 11:17:02;;;;;;;1.70;1.37;;;11.50;99.90;;;;;;4958379;28;20412;-75
2023/01/06 11:19:36;;;;;;;1.77;1.53;;;11.50;99.90;;;;;;4957395;28;20444;-74
2023/01/06 11:22:04;;;;;;;2.40;1.30;;;11.50;99.90;;;;;;4954705;29;20424;-75
2023/01/06 11:24:51;;;;;;;1.20;1.10;;;11.50;99.90;;;;;;4957062;28;20485;-75
2023/01/06 11:27:22;;;;;;;1.77;1.20;;;11.50;99.90;;;;;;4946499;28;20423;-74
2023/01/06 11:29:48;;;;;;;1.73;1.30;;;11.50;99.90;;;;;;4936508;29;20426;-74
2023/01/06 11:32:25;;;;;;;1.70;1.57;;;11.50;99.90;;;;;;4949254;29;20497;-75
2023/01/06 11:35:05;;;;;;;2.20;1.40;;;11.50;99.90;;;;;;4940252;29;20826;-74
2023/01/06 11:37:33;;;;;;;1.83;1.50;;;11.60;99.90;;;;;;4970286;28;20902;-74
2023/01/06 11:40:19;;;;;;;3.50;1.77;;;11.60;99.90;;;;;;4969609;28;20503;-74
2023/01/06 11:42:55;;;;;;;1.90;1.70;;;11.60;99.90;;;;;;4957082;28;20447;-75
2023/01/06 11:45:34;;;;;;;1.70;1.60;;;11.60;99.90;;;;;;4954209;29;20839;-74
2023/01/06 11:48:11;;;;;;;2.00;1.57;;;11.60;99.90;;;;;;4969854;28;20419;-74
2023/01/06 11:50:37;;;;;;;1.40;1.30;;;11.60;99.90;;;;;;4953631;28;20431;-74
2023/01/06 11:53:16;;;;;;;1.70;1.40;;;11.60;99.90;;;;;;4962774;28;20529;-74
2023/01/06 11:55:58;;;;;;;1.97;1.70;;;11.60;99.90;;;;;;4962925;28;20455;-74
2023/01/06 11:58:35;;;;;;;1.53;1.43;;;11.60;99.90;;;;;;4918805;29;20439;-74
2023/01/06 12:01:26;;;;;;;2.03;1.70;;;11.60;99.90;;;;;;4931290;29;20455;-73
2023/01/06 12:04:06;;;;;;;4.50;1.63;;;11.60;99.90;;;;;;4955705;28;21180;-72
2023/01/06 12:06:38;;;;;;;1.50;1.40;;;11.60;99.90;;;;;;4955630;29;20916;-73
2023/01/06 12:09:09;;;;;;;2.83;1.70;;;11.70;99.90;;;;;;4955814;29;20897;-74
2023/01/06 12:11:58;;;;;;;1.93;1.70;;;11.70;99.90;;;;;;4955476;29;20425;-76
2023/01/06 12:14:34;;;;;;;1.80;1.60;;;11.70;99.90;;;;;;4934800;29;20447;-74
2023/01/06 12:17:11;;;;;;;2.50;1.73;;;11.70;99.90;;;;;;4953510;29;20432;-74
2023/01/06 12:19:50;;;;;;;1.73;1.30;;;11.70;99.90;;;;;;4937859;29;20525;-74
2023/01/06 12:22:41;;;;;;;2.13;1.70;;;11.70;99.90;;;;;;4969692;28;20934;-74
2023/01/06 12:25:53;;;;;;;2.13;1.30;;;11.70;99.90;;;;;;4968757;28;20463;-74
2023/01/06 12:28:33;;;;;;;2.13;1.80;;;11.70;99.90;;;;;;4942574;28;20497;-74
2023/01/06 12:31:16;;;;;;;2.60;1.50;;;11.70;99.90;;;;;;4968773;28;20446;-74
2023/01/06 12:33:51;;;;;;;1.70;1.53;;;11.70;99.90;;;;;;4969555;28;20919;-74
2023/01/06 12:36:40;;;;;;;4.80;1.67;;;11.70;99.90;;;;;;4969151;28;20872;-74
2023/01/06 12:39:44;;;;;;;1.23;1.13;;;11.80;99.90;;;;;;4944865;28;20544;-74
2023/01/06 12:42:22;;;;;;;2.23;1.50;;;11.70;99.90;;;;;;4964105;28;20535;-74
2023/01/06 12:44:51;;;;;;;9.20;1.87;;;11.80;99.90;;;;;;4966837;28;20960;-74
2023/01/06 12:47:26;;;;;;;4.27;1.60;;;11.80;99.90;;;;;;4968819;28;20447;-74
2023/01/06 12:50:05;;;;;;;2.73;1.80;;;11.80;99.90;;;;;;4969283;28;20475;-74
2023/01/06 12:52:40;;;;;;;1.80;1.70;;;11.80;99.90;;;;;;4956478;28;20461;-76
2023/01/06 12:55:16;;;;;;;2.33;1.50;;;11.80;99.90;;;;;;4958320;28;20495;-74
2023/01/06 12:58:03;;;;;;;2.57;1.63;;;11.80;99.90;;;;;;4953432;28;21022;-72
2023/01/06 13:00:44;;;;;;;1.93;1.53;;;11.80;99.90;;;;;;4953800;29;20479;-79
2023/01/06 13:03:52;;;;;;;2.60;1.80;;;11.80;99.90;;;;;;4957646;28;20462;-79
2023/01/06 13:06:21;;;;;;;3.10;1.67;;;11.80;99.90;;;;;;4947941;29;20494;-77
2023/01/06 13:09:06;;;;;;;1.60;1.50;;;11.80;99.90;;;;;;4940684;29;20530;-79
2023/01/06 13:11:52;;;;;;;1.57;1.43;;;11.80;99.90;;;;;;4955399;28;20455;-79
2023/01/06 13:14:30;;;;;;;2.93;1.60;;;11.80;99.90;;;;;;4957457;28;20462;-79
2023/01/06 13:17:08;;;;;;;1.70;1.50;;;11.80;99.90;;;;;;4972511;28;20978;-79
2023/01/06 13:19:45;;;;;;;1.50;1.40;;;11.80;99.90;;;;;;4970103;28;20435;-77
2023/01/06 13:22:23;;;;;;;1.50;1.40;;;11.80;99.90;;;;;;4970240;28;20415;-78
2023/01/06 13:25:02;;;;;;;1.60;1.50;;;11.80;99.90;;;;;;4972321;28;20438;-77
2023/01/06 13:27:53;;;;;;;1.73;1.43;;;11.80;99.90;;;;;;4956097;29;20852;-76